Time;durP1;ratioP1;P1;durP2;ratioP2;P2;SDS_P1;SDS_P2;PMS_P1;PMS_P2;Temp;Humidity;BMP_temperature;BMP_pressure;BME280_temperature;BME280_humidity;BME280_pressure;Samples;Min_cycle;Max_cycle;Signal;HPM_P1;HPM_P2
2024/01/12 00:00:30;;;;;;;;;;;;;;;-0.26;58.75;99638.16;4426820;32;34430;-86
2024/01/12 00:02:58;;;;;;;;;;;;;;;-0.28;59.44;99639.69;4434273;32;34982;-85
2024/01/12 00:05:25;;;;;;;;;;;;;;;-0.06;58.26;99627.50;4427641;32;33054;-87
2024/01/12 00:07:53;;;;;;;;;;;;;;;-0.12;58.69;99636.44;4423415;32;34052;-85
2024/01/12 00:10:20;;;;;;;;;;;;;;;-0.12;58.46;99627.13;4428451;32;34075;-85
2024/01/12 00:12:47;;;;;;;;;;;;;;;-0.40;59.31;99629.63;4425207;32;34881;-85
2024/01/12 00:15:15;;;;;;;;;;;;;;;-0.24;59.45;99623.81;4428428;32;33222;-86
2024/01/12 00:17:42;;;;;;;;;;;;;;;-0.46;60.16;99631.78;4419098;32;32183;-86
2024/01/12 00:20:10;;;;;;;;;;;;;;;-0.32;59.48;99615.69;4424439;32;35276;-86
2024/01/12 00:22:37;;;;;;;;;;;;;;;-0.27;59.58;99611.75;4422602;32;33574;-87
2024/01/12 00:25:05;;;;;;;;;;;;;;;-0.69;60.72;99612.47;4421141;32;34378;-87
2024/01/12 00:27:32;;;;;;;;;;;;;;;-0.90;61.42;99621.31;4430990;32;33712;-87
2024/01/12 00:30:00;;;;;;;;;;;;;;;-1.17;62.24;99621.25;4430328;32;34844;-86
2024/01/12 00:32:28;;;;;;;;;;;;;;;-1.09;62.41;99616.66;4429605;32;33967;-87
2024/01/12 00:34:55;;;;;;;;;;;;;;;-0.78;61.69;99624.62;4427650;32;32687;-86
2024/01/12 00:37:22;;;;;;;;;;;;;;;-0.79;61.41;99633.94;4427186;32;34110;-87
2024/01/12 00:39:50;;;;;;;;;;;;;;;-1.14;62.44;99629.06;4430659;32;35100;-87
2024/01/12 00:42:17;;;;;;;;;;;;;;;-1.04;62.27;99628.03;4427862;32;35068;-86
2024/01/12 00:44:44;;;;;;;;;;;;;;;-1.19;62.92;99640.59;4428609;32;33582;-86
2024/01/12 00:47:12;;;;;;;;;;;;;;;-1.02;62.64;99637.53;4420857;32;34761;-87
2024/01/12 00:49:39;;;;;;;;;;;;;;;-0.81;61.71;99642.25;4420588;32;34447;-86
2024/01/12 00:52:06;;;;;;;;;;;;;;;-0.83;62.12;99641.28;4420357;32;34064;-85
2024/01/12 00:54:34;;;;;;;;;;;;;;;-1.04;62.70;99646.72;4418596;32;34140;-88
2024/01/12 00:57:01;;;;;;;;;;;;;;;-0.63;61.40;99640.88;4420030;32;33240;-86
2024/01/12 00:59:28;;;;;;;;;;;;;;;-0.85;62.10;99642.84;4419888;32;34405;-86
2024/01/12 01:01:58;;;;;;;;;;;;;;;-0.30;60.63;99638.75;4419564;32;35155;-87
2024/01/12 01:04:25;;;;;;;;;;;;;;;-0.45;60.71;99641.19;4417063;32;33667;-87
2024/01/12 01:06:53;;;;;;;;;;;;;;;-1.21;62.92;99660.00;4419653;32;34074;-87
2024/01/12 01:09:20;;;;;;;;;;;;;;;-1.00;62.63;99669.03;4406653;32;35191;-87
2024/01/12 01:11:48;;;;;;;;;;;;;;;-0.76;62.13;99663.78;4418064;32;34967;-87
2024/01/12 01:14:15;;;;;;;;;;;;;;;-0.85;62.18;99668.28;4418336;32;33233;-86
2024/01/12 01:16:43;;;;;;;;;;;;;;;-0.82;61.95;99671.03;4417524;32;33894;-88
2024/01/12 01:19:10;;;;;;;;;;;;;;;-0.69;61.54;99665.94;4418657;32;34335;-86
2024/01/12 01:21:37;;;;;;;;;;;;;;;-0.54;60.96;99666.06;4411618;32;34462;-85
2024/01/12 01:24:05;;;;;;;;;;;;;;;-1.19;63.30;99671.13;4401773;32;32779;-86
2024/01/12 01:26:32;;;;;;;;;;;;;;;-0.71;62.22;99667.53;4402144;32;33381;-86
2024/01/12 01:28:59;;;;;;;;;;;;;;;-0.90;62.65;99674.75;4418789;32;34374;-87
2024/01/12 01:31:27;;;;;;;;;;;;;;;-0.90;62.96;99675.63;4416513;32;34021;-87
2024/01/12 01:33:54;;;;;;;;;;;;;;;-0.77;62.19;99664.56;4419637;32;32882;-87
2024/01/12 01:36:21;;;;;;;;;;;;;;;-0.74;62.47;99664.78;4417905;32;33827;-86
2024/01/12 01:38:49;;;;;;;;;;;;;;;-0.55;62.09;99659.22;4418606;32;33078;-85
2024/01/12 01:41:16;;;;;;;;;;;;;;;-0.65;62.27;99665.34;4417980;32;34789;-87
2024/01/12 01:43:43;;;;;;;;;;;;;;;-0.63;62.09;99658.72;4418939;32;33614;-85
2024/01/12 01:46:11;;;;;;;;;;;;;;;-0.95;62.98;99658.28;4420130;32;33576;-87
2024/01/12 01:48:38;;;;;;;;;;;;;;;-0.35;61.35;99660.47;4414596;32;33647;-87
2024/01/12 01:51:05;;;;;;;;;;;;;;;-0.76;62.26;99661.22;4413240;32;34362;-86
2024/01/12 01:53:33;;;;;;;;;;;;;;;-0.71;62.45;99662.44;4415610;32;33068;-86
2024/01/12 01:56:01;;;;;;;;;;;;;;;-1.08;63.63;99661.69;4411207;32;35006;-86
2024/01/12 01:58:28;;;;;;;;;;;;;;;-0.39;61.42;99655.97;4413655;32;33880;-86
2024/01/12 02:00:55;;;;;;;;;;;;;;;-0.54;61.60;99653.31;4422972;32;34233;-86
2024/01/12 02:03:23;;;;;;;;;;;;;;;-0.82;62.96;99648.13;4420547;32;33935;-87
2024/01/12 02:05:54;;;;;;;;;;;;;;;-0.35;61.15;99652.84;4422383;32;33848;-84
2024/01/12 02:08:22;;;;;;;;;;;;;;;-0.75;62.86;99660.47;4413251;32;34819;-86
2024/01/12 02:10:52;;;;;;;;;;;;;;;-1.14;63.92;99668.91;4410737;32;35026;-87
2024/01/12 02:13:19;;;;;;;;;;;;;;;-1.17;64.18;99664.50;4412118;32;33379;-86
2024/01/12 02:15:46;;;;;;;;;;;;;;;-0.73;62.79;99656.34;4411673;32;34465;-85
2024/01/12 02:18:14;;;;;;;;;;;;;;;-1.12;64.14;99659.72;4411450;32;35030;-85
2024/01/12 02:20:42;;;;;;;;;;;;;;;-0.72;63.14;99653.00;4421685;32;34233;-85
2024/01/12 02:23:09;;;;;;;;;;;;;;;-1.07;64.16;99666.84;4409929;32;34156;-87
2024/01/12 02:25:37;;;;;;;;;;;;;;;-0.95;63.83;99665.91;4424330;32;34870;-85
2024/01/12 02:28:05;;;;;;;;;;;;;;;-0.76;63.13;99666.31;4414730;32;34868;-87
2024/01/12 02:30:32;;;;;;;;;;;;;;;-1.03;64.03;99673.91;4412950;32;34726;-87
2024/01/12 02:33:03;;;;;;;;;;;;;;;-1.18;64.91;99677.09;4411336;32;33973;-86
2024/01/12 02:35:31;;;;;;;;;;;;;;;-0.85;63.84;99681.87;4413295;32;34166;-86
2024/01/12 02:38:00;;;;;;;;;;;;;;;-1.18;64.81;99685.62;4415024;32;33831;-85
2024/01/12 02:40:27;;;;;;;;;;;;;;;-1.34;65.48;99690.47;4413351;32;33947;-87
2024/01/12 02:42:55;;;;;;;;;;;;;;;-1.44;66.23;99688.06;4409064;32;34062;-87
2024/01/12 02:45:22;;;;;;;;;;;;;;;-0.89;64.46;99696.87;4422629;32;33965;-86
2024/01/12 02:47:49;;;;;;;;;;;;;;;-1.32;65.91;99697.41;4411800;32;33521;-85
2024/01/12 02:50:17;;;;;;;;;;;;;;;-1.08;65.28;99695.63;4412682;32;33995;-85
2024/01/12 02:52:44;;;;;;;;;;;;;;;-1.08;65.24;99699.84;4411692;32;33644;-85
2024/01/12 02:55:12;;;;;;;;;;;;;;;-1.27;65.59;99703.69;4410679;32;33409;-87
2024/01/12 02:57:39;;;;;;;;;;;;;;;-1.02;65.11;99715.53;4406523;32;33934;-85
2024/01/12 03:00:07;;;;;;;;;;;;;;;-0.86;64.61;99717.44;4412359;32;34167;-87
2024/01/12 03:02:34;;;;;;;;;;;;;;;-0.69;63.79;99713.44;4413715;32;35463;-87
2024/01/12 03:05:02;;;;;;;;;;;;;;;-0.95;64.87;99706.63;4414335;32;33632;-85
2024/01/12 03:07:30;;;;;;;;;;;;;;;-0.67;63.53;99700.03;4412067;32;35035;-86
2024/01/12 03:09:58;;;;;;;;;;;;;;;-0.83;64.15;99702.38;4414174;32;33824;-86
2024/01/12 03:12:26;;;;;;;;;;;;;;;-1.01;64.68;99702.91;4419995;32;34354;-87
2024/01/12 03:14:54;;;;;;;;;;;;;;;-1.07;65.16;99706.69;4408832;32;34543;-85
2024/01/12 03:17:22;;;;;;;;;;;;;;;-0.83;64.89;99702.38;4414051;32;34491;-87
2024/01/12 03:19:49;;;;;;;;;;;;;;;-1.04;64.95;99699.28;4424028;32;33895;-88
2024/01/12 03:22:16;;;;;;;;;;;;;;;-0.72;64.25;99706.47;4411101;32;33678;-86
2024/01/12 03:24:44;;;;;;;;;;;;;;;-0.98;64.54;99708.19;4410644;32;33856;-87
2024/01/12 03:27:11;;;;;;;;;;;;;;;-1.27;65.56;99707.91;4410506;32;34354;-86
2024/01/12 03:29:38;;;;;;;;;;;;;;;-1.10;65.05;99709.03;4411152;32;34278;-86
2024/01/12 03:32:06;;;;;;;;;;;;;;;-1.33;65.17;99704.94;4406839;32;32944;-87
2024/01/12 03:34:33;;;;;;;;;;;;;;;-1.28;65.18;99701.06;4413221;32;34224;-86
2024/01/12 03:37:01;;;;;;;;;;;;;;;-1.37;65.90;99710.59;4418088;32;33929;-85
2024/01/12 03:39:28;;;;;;;;;;;;;;;-0.99;64.74;99701.31;4417332;32;32862;-87
2024/01/12 03:41:55;;;;;;;;;;;;;;;-1.43;65.70;99705.09;4413632;32;33199;-87
2024/01/12 03:44:23;;;;;;;;;;;;;;;-1.51;66.41;99702.91;4416394;32;34805;-87
2024/01/12 03:46:50;;;;;;;;;;;;;;;-1.31;65.42;99705.94;4432609;32;34156;-87
2024/01/12 03:49:18;;;;;;;;;;;;;;;-1.32;65.76;99715.22;4435001;32;34334;-86
2024/01/12 03:51:53;;;;;;;;;;;;;;;-1.30;65.52;99718.75;4426264;32;33492;-88
2024/01/12 03:54:24;;;;;;;;;;;;;;;-1.30;65.98;99716.19;4424652;32;34310;-85
2024/01/12 03:56:52;;;;;;;;;;;;;;;-0.95;64.69;99719.34;4423465;32;32819;-86
2024/01/12 03:59:19;;;;;;;;;;;;;;;-1.27;65.37;99718.97;4424969;32;34172;-87
2024/01/12 04:01:46;;;;;;;;;;;;;;;-1.04;64.95;99724.72;4430520;32;33630;-86
2024/01/12 04:04:14;;;;;;;;;;;;;;;-1.48;65.81;99723.47;4433860;32;34774;-86
2024/01/12 04:06:41;;;;;;;;;;;;;;;-0.87;64.19;99725.81;4432001;32;34005;-86
2024/01/12 04:09:13;;;;;;;;;;;;;;;-1.05;64.19;99715.31;4432729;32;34811;-85
2024/01/12 04:11:40;;;;;;;;;;;;;;;-0.85;64.25;99726.81;4428177;32;33433;-85
2024/01/12 04:14:08;;;;;;;;;;;;;;;-1.05;64.59;99730.59;4427696;32;33895;-85
2024/01/12 04:16:35;;;;;;;;;;;;;;;-1.15;64.88;99725.66;4433430;32;34362;-85
2024/01/12 04:19:02;;;;;;;;;;;;;;;-0.98;64.17;99723.47;4434360;32;34433;-87
2024/01/12 04:21:30;;;;;;;;;;;;;;;-1.23;65.53;99722.59;4431477;32;33341;-86
2024/01/12 04:23:57;;;;;;;;;;;;;;;-1.08;65.17;99725.28;4436074;32;33921;-87
2024/01/12 04:26:24;;;;;;;;;;;;;;;-0.87;64.48;99730.91;4432982;32;35217;-84
2024/01/12 04:28:52;;;;;;;;;;;;;;;-0.84;64.43;99733.69;4435663;32;34820;-86
2024/01/12 04:31:19;;;;;;;;;;;;;;;-1.01;64.74;99735.09;4423263;32;33481;-86
2024/01/12 04:33:46;;;;;;;;;;;;;;;-1.13;65.38;99735.16;4424996;32;34157;-87
2024/01/12 04:36:14;;;;;;;;;;;;;;;-0.89;64.32;99740.13;4428508;32;34820;-86
2024/01/12 04:38:41;;;;;;;;;;;;;;;-1.34;65.88;99741.31;4432479;32;35184;-85
2024/01/12 04:41:09;;;;;;;;;;;;;;;-1.27;65.75;99734.22;4428099;32;33597;-86
2024/01/12 04:43:36;;;;;;;;;;;;;;;-1.11;65.09;99742.87;4426862;32;33733;-85
2024/01/12 04:46:03;;;;;;;;;;;;;;;-1.48;66.06;99745.44;4428978;32;34874;-86
2024/01/12 04:48:31;;;;;;;;;;;;;;;-1.23;65.70;99740.41;4429563;32;34592;-85
2024/01/12 04:50:59;;;;;;;;;;;;;;;-1.59;66.50;99738.72;4431079;32;32393;-86
2024/01/12 04:53:26;;;;;;;;;;;;;;;-1.47;66.17;99739.59;4429360;32;34187;-86
2024/01/12 04:55:54;;;;;;;;;;;;;;;-1.31;65.58;99746.62;4430634;32;33757;-85
2024/01/12 04:58:21;;;;;;;;;;;;;;;-1.26;65.80;99751.25;4428693;32;33961;-84
2024/01/12 05:00:48;;;;;;;;;;;;;;;-1.56;66.55;99761.84;4433400;32;33095;-86
2024/01/12 05:03:16;;;;;;;;;;;;;;;-1.01;64.64;99755.47;4434241;32;33508;-86
2024/01/12 05:05:43;;;;;;;;;;;;;;;-1.02;64.57;99767.31;4436298;32;33601;-86
2024/01/12 05:08:11;;;;;;;;;;;;;;;-1.44;65.91;99757.59;4436323;32;34358;-85
2024/01/12 05:10:38;;;;;;;;;;;;;;;-1.04;64.56;99762.88;4433274;32;33503;-86
2024/01/12 05:13:05;;;;;;;;;;;;;;;-1.37;65.97;99769.09;4420253;32;34149;-85
2024/01/12 05:15:33;;;;;;;;;;;;;;;-0.32;62.72;99775.31;4435217;32;34181;-86
2024/01/12 05:18:01;;;;;;;;;;;;;;;-0.70;63.31;99776.22;4433910;32;33991;-86
2024/01/12 05:20:29;;;;;;;;;;;;;;;-0.63;63.34;99786.03;4434692;32;32755;-86
2024/01/12 05:22:56;;;;;;;;;;;;;;;-0.83;63.62;99783.84;4416252;32;34863;-86
2024/01/12 05:25:24;;;;;;;;;;;;;;;-0.67;63.36;99784.06;4428190;32;33863;-85
2024/01/12 05:27:51;;;;;;;;;;;;;;;-0.87;63.68;99786.91;4434048;32;35028;-86
2024/01/12 05:30:18;;;;;;;;;;;;;;;-0.64;63.62;99784.28;4430173;32;33290;-86
2024/01/12 05:32:46;;;;;;;;;;;;;;;-1.04;64.93;99795.97;4430194;32;34732;-85
2024/01/12 05:35:13;;;;;;;;;;;;;;;-1.18;64.95;99802.66;4432547;32;33953;-87
2024/01/12 05:37:42;;;;;;;;;;;;;;;-1.09;64.81;99805.84;4429250;32;34634;-87
2024/01/12 05:40:10;;;;;;;;;;;;;;;-1.38;65.97;99813.09;4432561;32;33577;-85
2024/01/12 05:42:37;;;;;;;;;;;;;;;-1.27;65.74;99807.09;4434944;32;34853;-87
2024/01/12 05:45:04;;;;;;;;;;;;;;;-1.55;66.64;99820.44;4429113;32;34551;-86
2024/01/12 05:47:32;;;;;;;;;;;;;;;-1.66;67.15;99818.78;4432591;32;34406;-85
2024/01/12 05:49:59;;;;;;;;;;;;;;;-1.14;65.54;99827.50;4435395;32;33040;-87
2024/01/12 05:52:27;;;;;;;;;;;;;;;-1.21;65.81;99827.91;4433831;32;33910;-85
2024/01/12 05:54:55;;;;;;;;;;;;;;;-1.09;65.27;99831.28;4436753;32;34554;-85
2024/01/12 05:57:22;;;;;;;;;;;;;;;-1.19;65.48;99833.97;4432953;32;34016;-86
2024/01/12 05:59:49;;;;;;;;;;;;;;;-0.93;64.30;99833.22;4434471;32;33994;-86
2024/01/12 06:02:17;;;;;;;;;;;;;;;-1.09;65.00;99828.75;4433497;32;34091;-86
2024/01/12 06:04:44;;;;;;;;;;;;;;;-1.29;65.40;99827.38;4435074;32;35220;-85
2024/01/12 06:07:12;;;;;;;;;;;;;;;-1.41;65.68;99817.97;4434537;32;33845;-86
2024/01/12 06:09:39;;;;;;;;;;;;;;;-1.86;67.15;99819.88;4430258;32;33495;-85
2024/01/12 06:12:07;;;;;;;;;;;;;;;-1.56;66.66;99826.28;4432535;32;33882;-85
2024/01/12 06:14:34;;;;;;;;;;;;;;;-1.27;65.65;99824.91;4431622;32;35202;-86
2024/01/12 06:17:01;;;;;;;;;;;;;;;-1.12;64.68;99828.53;4432924;32;34256;-84
2024/01/12 06:19:29;;;;;;;;;;;;;;;-1.28;65.26;99825.69;4436377;32;34709;-86
2024/01/12 06:21:56;;;;;;;;;;;;;;;-1.33;65.41;99835.53;4429126;32;34643;-86
2024/01/12 06:24:23;;;;;;;;;;;;;;;-1.16;64.12;99835.84;4435447;32;34056;-86
2024/01/12 06:26:51;;;;;;;;;;;;;;;-1.32;64.50;99844.94;4435053;32;34200;-87
2024/01/12 06:29:18;;;;;;;;;;;;;;;-1.41;65.42;99845.94;4426044;32;33321;-87
2024/01/12 06:31:46;;;;;;;;;;;;;;;-1.42;65.47;99844.19;4426310;32;34892;-87
2024/01/12 06:34:13;;;;;;;;;;;;;;;-1.04;64.11;99847.75;4429982;32;35216;-87
2024/01/12 06:36:43;;;;;;;;;;;;;;;-0.71;63.11;99849.97;4427905;32;34065;-87
2024/01/12 06:39:11;;;;;;;;;;;;;;;-1.12;64.60;99848.87;4425332;32;34336;-87
2024/01/12 06:41:42;;;;;;;;;;;;;;;-0.81;63.80;99853.53;4435458;32;33957;-88
2024/01/12 06:44:09;;;;;;;;;;;;;;;-0.61;62.83;99849.78;4434248;32;34217;-87
2024/01/12 06:46:40;;;;;;;;;;;;;;;-0.87;63.18;99850.56;4420446;32;34514;-88
2024/01/12 06:49:10;;;;;;;;;;;;;;;-1.40;65.84;99861.34;4420269;32;33160;-88
2024/01/12 06:51:37;;;;;;;;;;;;;;;-1.03;64.26;99857.13;4420808;32;34069;-88
2024/01/12 06:54:04;;;;;;;;;;;;;;;-0.64;62.82;99863.22;4401344;32;33563;-87
2024/01/12 06:56:37;;;;;;;;;;;;;;;-0.78;63.22;99859.72;4405920;32;35003;-87
2024/01/12 06:59:05;;;;;;;;;;;;;;;-1.16;64.88;99864.72;4420147;32;33463;-88
2024/01/12 07:01:32;;;;;;;;;;;;;;;-0.68;63.87;99863.78;4420913;32;34854;-88
2024/01/12 07:04:00;;;;;;;;;;;;;;;-0.73;63.58;99860.91;4420644;32;34098;-88
2024/01/12 07:06:27;;;;;;;;;;;;;;;-0.59;63.45;99859.31;4421015;32;34128;-86
2024/01/12 07:08:55;;;;;;;;;;;;;;;-0.99;64.77;99864.19;4420536;32;33372;-88
2024/01/12 07:11:23;;;;;;;;;;;;;;;-1.12;65.55;99879.41;4420626;32;34065;-88
2024/01/12 07:13:51;;;;;;;;;;;;;;;-1.29;66.72;99882.41;4420413;32;34946;-88
2024/01/12 07:16:18;;;;;;;;;;;;;;;-1.50;67.30;99892.84;4419644;32;34162;-88
2024/01/12 07:18:45;;;;;;;;;;;;;;;-1.59;67.73;99892.19;4405478;32;34513;-88
2024/01/12 07:21:13;;;;;;;;;;;;;;;-1.54;67.82;99890.84;4419637;32;35156;-87
2024/01/12 07:23:41;;;;;;;;;;;;;;;-1.67;69.69;99887.31;4420303;32;33952;-87
2024/01/12 07:26:08;;;;;;;;;;;;;;;-1.58;68.63;99888.88;4421224;32;33910;-87
2024/01/12 07:28:35;;;;;;;;;;;;;;;-1.74;69.51;99893.63;4419761;32;33268;-87
2024/01/12 07:31:03;;;;;;;;;;;;;;;-1.82;69.60;99892.16;4419654;32;34007;-87
2024/01/12 07:33:30;;;;;;;;;;;;;;;-1.92;70.59;99903.31;4419738;32;34286;-88
2024/01/12 07:35:57;;;;;;;;;;;;;;;-1.78;70.42;99897.59;4420135;32;35240;-87
2024/01/12 07:38:25;;;;;;;;;;;;;;;-2.19;71.45;99892.00;4420168;32;33481;-89
2024/01/12 07:40:53;;;;;;;;;;;;;;;-1.93;70.85;99885.41;4419167;32;34187;-87
2024/01/12 07:43:21;;;;;;;;;;;;;;;-2.04;71.27;99889.72;4419972;32;33775;-89
2024/01/12 07:45:49;;;;;;;;;;;;;;;-1.58;70.19;99893.94;4419874;32;34374;-87
2024/01/12 07:48:17;;;;;;;;;;;;;;;-2.05;71.60;99898.09;4421762;32;33978;-88
2024/01/12 07:50:45;;;;;;;;;;;;;;;-1.72;70.99;99897.16;4421667;32;34750;-87
2024/01/12 07:53:14;;;;;;;;;;;;;;;-1.83;70.86;99898.03;4421308;32;34881;-86
2024/01/12 07:55:42;;;;;;;;;;;;;;;-1.88;71.35;99909.53;4418595;32;35160;-88
2024/01/12 07:58:13;;;;;;;;;;;;;;;-1.64;70.39;99910.41;4421956;32;34011;-85
2024/01/12 08:00:41;;;;;;;;;;;;;;;-1.48;69.92;99914.19;4409077;32;34924;-88
2024/01/12 08:03:10;;;;;;;;;;;;;;;-1.41;70.07;99919.69;4421882;32;34372;-86
2024/01/12 08:05:37;;;;;;;;;;;;;;;-1.02;68.69;99921.66;4421345;32;35006;-87
2024/01/12 08:08:05;;;;;;;;;;;;;;;-0.89;68.15;99926.81;4420234;32;33638;-87
2024/01/12 08:10:33;;;;;;;;;;;;;;;-1.05;68.46;99919.78;4421979;32;33486;-87
2024/01/12 08:13:02;;;;;;;;;;;;;;;-1.09;68.44;99929.66;4422069;32;33949;-87
2024/01/12 08:15:29;;;;;;;;;;;;;;;-1.35;69.63;99933.75;4421961;32;34826;-88
2024/01/12 08:17:57;;;;;;;;;;;;;;;-0.80;67.85;99932.53;4408323;32;32947;-87
2024/01/12 08:20:25;;;;;;;;;;;;;;;-1.57;70.36;99931.31;4421123;32;34784;-87
2024/01/12 08:22:52;;;;;;;;;;;;;;;-1.00;68.28;99938.78;4421891;32;34279;-87
2024/01/12 08:25:39;;;;;;;;;;;;;;;-0.89;68.22;99951.41;4421027;32;35521;-87
2024/01/12 08:28:07;;;;;;;;;;;;;;;-0.86;68.06;99959.25;4421394;32;33747;-87
2024/01/12 08:30:34;;;;;;;;;;;;;;;-0.69;67.35;99953.66;4420495;32;34560;-86
2024/01/12 08:33:01;;;;;;;;;;;;;;;-0.78;67.93;99966.66;4420998;32;34570;-85
2024/01/12 08:35:29;;;;;;;;;;;;;;;-1.10;68.85;99961.84;4421677;32;35278;-85
2024/01/12 08:37:56;;;;;;;;;;;;;;;-1.40;70.02;99959.62;4420879;32;33957;-87
2024/01/12 08:40:23;;;;;;;;;;;;;;;-0.87;68.76;99962.56;4421323;32;34143;-85
2024/01/12 08:42:51;;;;;;;;;;;;;;;-0.64;67.73;99965.06;4421296;32;34483;-85
2024/01/12 08:45:18;;;;;;;;;;;;;;;-0.88;68.19;99959.12;4407448;32;33060;-87
2024/01/12 08:47:46;;;;;;;;;;;;;;;-0.92;68.32;99963.91;4420519;32;33546;-87
2024/01/12 08:50:13;;;;;;;;;;;;;;;-0.98;69.39;99965.25;4420186;32;34054;-85
2024/01/12 08:52:41;;;;;;;;;;;;;;;-0.48;67.45;99963.59;4421838;32;34315;-87
2024/01/12 08:55:09;;;;;;;;;;;;;;;-0.76;68.08;99960.03;4418534;32;34300;-86
2024/01/12 08:57:37;;;;;;;;;;;;;;;-0.74;68.24;99960.09;4421493;32;34454;-85
2024/01/12 09:00:05;;;;;;;;;;;;;;;-0.79;68.52;99962.34;4421855;32;34124;-86
2024/01/12 09:02:32;;;;;;;;;;;;;;;-0.33;66.73;99962.09;4421868;32;33967;-85
2024/01/12 09:05:02;;;;;;;;;;;;;;;-0.59;67.52;99971.37;4420372;32;34870;-87
2024/01/12 09:07:30;;;;;;;;;;;;;;;-0.41;67.47;99973.44;4420932;32;33073;-87
2024/01/12 09:09:57;;;;;;;;;;;;;;;-0.35;66.97;99973.81;4421249;32;33967;-86
2024/01/12 09:12:24;;;;;;;;;;;;;;;-0.13;66.48;99977.06;4421135;32;33941;-88
2024/01/12 09:14:52;;;;;;;;;;;;;;;-0.32;67.12;99979.13;4420657;32;33779;-86
2024/01/12 09:17:19;;;;;;;;;;;;;;;-0.26;66.73;99975.34;4421927;32;32867;-85
2024/01/12 09:19:48;;;;;;;;;;;;;;;0.07;65.94;99982.62;4420628;32;35251;-87
2024/01/12 09:22:15;;;;;;;;;;;;;;;-0.04;66.01;99986.97;4421236;32;35240;-87
2024/01/12 09:24:42;;;;;;;;;;;;;;;-0.37;67.02;99983.94;4421559;32;35066;-87
2024/01/12 09:27:11;;;;;;;;;;;;;;;-0.51;67.58;99992.25;4421793;32;33722;-86
2024/01/12 09:29:38;;;;;;;;;;;;;;;0.02;65.63;99989.97;4420894;32;34951;-86
2024/01/12 09:32:06;;;;;;;;;;;;;;;-0.06;66.21;99994.53;4421374;32;34348;-86
2024/01/12 09:34:33;;;;;;;;;;;;;;;0.42;64.63;99983.31;4421165;32;35036;-87
2024/01/12 09:37:00;;;;;;;;;;;;;;;0.58;63.66;99989.41;4418114;32;33632;-86
2024/01/12 09:39:28;;;;;;;;;;;;;;;0.58;63.30;99981.75;4420994;32;34083;-87
2024/01/12 09:41:58;;;;;;;;;;;;;;;0.65;62.71;99995.00;4421737;32;33924;-87
2024/01/12 09:44:26;;;;;;;;;;;;;;;0.63;62.62;99995.69;4420083;32;34316;-87
2024/01/12 09:46:57;;;;;;;;;;;;;;;0.79;62.28;99995.00;4432244;32;33383;-86
2024/01/12 09:49:26;;;;;;;;;;;;;;;0.76;61.79;99998.25;4432663;32;33780;-86
2024/01/12 09:51:53;;;;;;;;;;;;;;;0.99;61.60;99986.09;4421448;32;33998;-86
2024/01/12 09:54:20;;;;;;;;;;;;;;;0.52;62.72;99996.66;4421601;32;35082;-87
2024/01/12 09:56:48;;;;;;;;;;;;;;;0.62;62.63;99989.69;4421569;32;33013;-86
2024/01/12 09:59:18;;;;;;;;;;;;;;;0.66;62.44;99991.66;4421273;32;34644;-87
2024/01/12 10:01:45;;;;;;;;;;;;;;;0.41;63.10;99989.16;4421541;32;34324;-86
2024/01/12 10:04:13;;;;;;;;;;;;;;;0.62;61.97;99988.81;4421399;32;34067;-86
2024/01/12 10:06:40;;;;;;;;;;;;;;;1.11;60.89;99987.75;4421592;32;34071;-87
2024/01/12 10:09:09;;;;;;;;;;;;;;;1.17;60.25;99974.47;4432269;32;34158;-87
2024/01/12 10:11:37;;;;;;;;;;;;;;;0.67;62.17;99985.78;4421449;32;34312;-86
2024/01/12 10:14:04;;;;;;;;;;;;;;;0.98;61.42;99977.53;4421436;32;34309;-86
2024/01/12 10:16:31;;;;;;;;;;;;;;;1.25;60.80;99972.38;4432965;32;33489;-87
2024/01/12 10:18:59;;;;;;;;;;;;;;;0.82;61.85;99978.22;4421352;32;34851;-87
2024/01/12 10:21:27;;;;;;;;;;;;;;;0.89;62.28;99979.50;4432680;32;34370;-87
2024/01/12 10:24:06;;;;;;;;;;;;;;;0.99;61.45;99970.78;4432786;32;33835;-87
2024/01/12 10:26:34;;;;;;;;;;;;;;;0.80;62.16;99984.03;4432099;32;33214;-87
2024/01/12 10:29:02;;;;;;;;;;;;;;;0.85;61.56;99975.88;4421126;32;33768;-87
2024/01/12 10:31:29;;;;;;;;;;;;;;;1.43;60.19;99969.31;4421143;32;34032;-87
2024/01/12 10:33:59;;;;;;;;;;;;;;;1.18;60.91;99982.25;4432166;32;34737;-87
2024/01/12 10:36:27;;;;;;;;;;;;;;;0.95;61.46;99977.34;4432546;32;33378;-88
2024/01/12 10:38:55;;;;;;;;;;;;;;;1.13;60.77;99965.72;4432719;32;34294;-87
2024/01/12 10:41:23;;;;;;;;;;;;;;;1.45;60.48;99970.28;4432380;32;35046;-87
2024/01/12 10:43:51;;;;;;;;;;;;;;;1.36;60.30;99956.06;4432567;32;34330;-87
2024/01/12 10:46:37;;;;;;;;;;;;;;;1.20;60.45;99956.78;4432390;32;34265;-87
2024/01/12 10:49:12;;;;;;;;;;;;;;;1.69;59.36;99952.12;4436741;32;34152;-88
2024/01/12 10:51:43;;;;;;;;;;;;;;;1.43;59.50;99947.97;4435278;32;35139;-87
2024/01/12 10:54:17;;;;;;;;;;;;;;;1.37;60.12;99945.94;4435211;32;34058;-88
2024/01/12 10:56:45;;;;;;;;;;;;;;;1.49;59.36;99944.94;4435243;32;34041;-87
2024/01/12 10:59:12;;;;;;;;;;;;;;;1.24;60.09;99943.41;4435044;32;34015;-87
2024/01/12 11:01:39;;;;;;;;;;;;;;;1.72;59.20;99944.66;4434980;32;34111;-88
2024/01/12 11:04:07;;;;;;;;;;;;;;;1.88;59.04;99944.75;4435116;32;34465;-87
2024/01/12 11:06:34;;;;;;;;;;;;;;;1.54;59.50;99943.53;4434955;32;33326;-88
2024/01/12 11:09:02;;;;;;;;;;;;;;;2.26;57.60;99945.25;4434922;32;33940;-87
2024/01/12 11:11:31;;;;;;;;;;;;;;;1.74;58.78;99945.59;4434943;32;34982;-87
2024/01/12 11:13:59;;;;;;;;;;;;;;;1.68;58.19;99946.13;4434818;32;33602;-88
2024/01/12 11:16:26;;;;;;;;;;;;;;;1.11;59.90;99936.66;4435014;32;33154;-88
2024/01/12 11:18:53;;;;;;;;;;;;;;;1.11;60.64;99946.88;4435322;32;34569;-87
2024/01/12 11:21:24;;;;;;;;;;;;;;;1.50;59.67;99942.47;4434951;32;34369;-87
2024/01/12 11:23:53;;;;;;;;;;;;;;;1.64;59.73;99938.19;4434906;32;34223;-88
2024/01/12 11:26:20;;;;;;;;;;;;;;;1.70;59.82;99936.91;4436143;32;33511;-87
2024/01/12 11:28:48;;;;;;;;;;;;;;;1.52;60.47;99940.03;4435808;32;34932;-87
2024/01/12 11:31:26;;;;;;;;;;;;;;;2.24;58.59;99931.50;4447368;32;34334;-88
2024/01/12 11:33:57;;;;;;;;;;;;;;;2.26;58.33;99940.13;4434609;32;34466;-87
2024/01/12 11:36:27;;;;;;;;;;;;;;;1.85;59.43;99936.03;4436190;32;34014;-87
2024/01/12 11:38:58;;;;;;;;;;;;;;;1.74;59.97;99932.81;4434727;32;33952;-87
2024/01/12 11:41:26;;;;;;;;;;;;;;;2.27;58.01;99923.97;4434661;32;34347;-88
2024/01/12 11:43:53;;;;;;;;;;;;;;;1.89;59.22;99928.62;4434765;32;34314;-87
2024/01/12 11:46:23;;;;;;;;;;;;;;;2.26;58.68;99929.91;4435701;32;33202;-87
2024/01/12 11:48:50;;;;;;;;;;;;;;;2.03;58.76;99921.78;4435729;32;33713;-87
2024/01/12 11:51:21;;;;;;;;;;;;;;;2.19;58.17;99916.75;4434446;32;35073;-88
2024/01/12 11:53:52;;;;;;;;;;;;;;;1.75;58.99;99914.16;4435447;32;35069;-87
2024/01/12 11:56:20;;;;;;;;;;;;;;;2.16;58.37;99918.28;4434713;32;33883;-88
2024/01/12 11:58:48;;;;;;;;;;;;;;;2.48;57.88;99911.53;4434549;32;33736;-87
2024/01/12 12:01:15;;;;;;;;;;;;;;;2.38;57.27;99920.38;4435687;32;33736;-88
2024/01/12 12:03:43;;;;;;;;;;;;;;;2.82;56.30;99907.50;4435621;32;34156;-87
2024/01/12 12:06:11;;;;;;;;;;;;;;;2.62;56.74;99914.09;4435483;32;33953;-87
2024/01/12 12:08:42;;;;;;;;;;;;;;;2.60;56.36;99908.00;4434000;32;34264;-87
2024/01/12 12:11:12;;;;;;;;;;;;;;;2.30;57.64;99912.25;4434101;32;33756;-88
2024/01/12 12:13:40;;;;;;;;;;;;;;;2.82;55.88;99909.19;4435157;32;33820;-88
2024/01/12 12:16:07;;;;;;;;;;;;;;;3.00;55.54;99904.22;4433998;32;33810;-88
2024/01/12 12:18:35;;;;;;;;;;;;;;;2.82;56.36;99896.38;4435656;32;34127;-87
2024/01/12 12:21:03;;;;;;;;;;;;;;;3.14;55.34;99903.25;4435321;32;34356;-88
2024/01/12 12:23:30;;;;;;;;;;;;;;;2.51;56.96;99896.38;4435173;32;35096;-88
2024/01/12 12:25:58;;;;;;;;;;;;;;;2.71;56.91;99895.78;4434093;32;34260;-88
2024/01/12 12:28:25;;;;;;;;;;;;;;;3.35;55.08;99889.03;4433890;32;33744;-87
2024/01/12 12:30:55;;;;;;;;;;;;;;;2.77;56.30;99892.69;4434081;32;34255;-87
2024/01/12 12:33:23;;;;;;;;;;;;;;;2.98;55.55;99890.41;4436333;32;35078;-88
2024/01/12 12:36:09;;;;;;;;;;;;;;;3.30;54.20;99889.59;4437532;32;34151;-88
2024/01/12 12:38:37;;;;;;;;;;;;;;;3.04;55.26;99888.19;4436266;32;34838;-87
2024/01/12 12:41:08;;;;;;;;;;;;;;;2.69;55.68;99887.16;4437342;32;35384;-88
2024/01/12 12:43:37;;;;;;;;;;;;;;;2.69;55.12;99882.03;4436320;32;34437;-88
2024/01/12 12:46:05;;;;;;;;;;;;;;;2.80;55.43;99877.47;4435932;32;34333;-88
2024/01/12 12:48:33;;;;;;;;;;;;;;;2.57;55.64;99887.34;4437232;32;33780;-87
2024/01/12 12:51:00;;;;;;;;;;;;;;;2.65;55.50;99882.62;4437391;32;33685;-87
2024/01/12 12:53:28;;;;;;;;;;;;;;;2.77;55.23;99885.03;4437293;32;34502;-88